Time;durP1;ratioP1;P1;durP2;ratioP2;P2;SDS_P1;SDS_P2;PMS_P1;PMS_P2;Temp;Humidity;BMP_temperature;BMP_pressure;BME280_temperature;BME280_humidity;BME280_pressure;Samples;Min_cycle;Max_cycle;Signal;HPM_P1;HPM_P2
2023/11/21 00:00:28;;;;;;;9.57;4.30;;;14.40;96.70;;;;;;5064613;28;20049;-73
2023/11/21 00:02:57;;;;;;;6.68;3.90;;;14.40;96.70;;;;;;5053259;28;20048;-72
2023/11/21 00:05:26;;;;;;;7.35;4.10;;;14.40;96.70;;;;;;5079089;28;20114;-73
2023/11/21 00:07:55;;;;;;;6.75;3.67;;;14.30;96.70;;;;;;5088026;28;20070;-70
2023/11/21 00:10:23;;;;;;;8.75;4.25;;;14.30;96.70;;;;;;5064801;28;20045;-68
2023/11/21 00:12:54;;;;;;;8.15;3.97;;;14.20;96.70;;;;;;5058168;28;20491;-68
2023/11/21 00:15:23;;;;;;;8.85;4.28;;;14.20;96.70;;;;;;5080632;28;20053;-68
2023/11/21 00:17:51;;;;;;;6.60;4.03;;;14.20;96.70;;;;;;5071268;28;20064;-68
2023/11/21 00:20:20;;;;;;;6.25;3.70;;;14.20;96.70;;;;;;5051006;28;20049;-68
2023/11/21 00:22:48;;;;;;;8.43;3.92;;;14.20;96.70;;;;;;5081214;28;20119;-69
2023/11/21 00:25:17;;;;;;;7.22;4.13;;;14.30;96.70;;;;;;5083546;28;20405;-68
2023/11/21 00:27:45;;;;;;;8.93;4.10;;;14.30;96.70;;;;;;5050606;28;20037;-69
2023/11/21 00:30:16;;;;;;;6.63;4.03;;;14.30;96.70;;;;;;5064047;28;20056;-68
2023/11/21 00:32:44;;;;;;;8.55;4.40;;;14.30;96.70;;;;;;5072757;28;20049;-69
2023/11/21 00:35:13;;;;;;;6.43;4.65;;;14.20;96.70;;;;;;5077918;28;20048;-68
2023/11/21 00:37:42;;;;;;;13.15;4.28;;;14.20;96.70;;;;;;5070936;28;20048;-68
2023/11/21 00:40:11;;;;;;;8.60;3.95;;;14.20;96.70;;;;;;5058437;28;20482;-69
2023/11/21 00:42:40;;;;;;;7.80;3.90;;;14.20;96.70;;;;;;5073791;28;20036;-68
2023/11/21 00:45:09;;;;;;;6.68;3.38;;;14.20;96.70;;;;;;5059663;28;20045;-68
2023/11/21 00:47:39;;;;;;;6.65;3.67;;;14.20;96.70;;;;;;5050832;28;20488;-69
2023/11/21 00:50:08;;;;;;;8.55;4.20;;;14.20;96.70;;;;;;5066138;28;20071;-69
2023/11/21 00:52:36;;;;;;;6.15;3.85;;;14.20;96.70;;;;;;5079406;28;20066;-69
2023/11/21 00:55:07;;;;;;;5.85;3.30;;;14.20;96.70;;;;;;5083135;28;20040;-68
2023/11/21 00:57:35;;;;;;;6.88;3.42;;;14.20;96.70;;;;;;5075688;28;20037;-69
2023/11/21 01:00:13;;;;;;;7.40;4.10;;;14.20;96.70;;;;;;5074306;28;20488;-70
2023/11/21 01:02:44;;;;;;;10.15;3.78;;;14.20;96.70;;;;;;5069915;28;20076;-69
2023/11/21 01:05:13;;;;;;;6.75;3.90;;;14.20;96.70;;;;;;5070686;28;20044;-69
2023/11/21 01:07:41;;;;;;;9.32;4.18;;;14.10;96.70;;;;;;5059891;28;20086;-70
2023/11/21 01:10:09;;;;;;;8.48;3.97;;;14.20;96.70;;;;;;5078332;28;20039;-69
2023/11/21 01:12:38;;;;;;;6.45;4.15;;;14.20;96.70;;;;;;5076223;28;20040;-70
2023/11/21 01:15:07;;;;;;;7.75;3.80;;;14.20;96.70;;;;;;5069367;28;20040;-69
2023/11/21 01:17:36;;;;;;;5.63;3.70;;;14.20;96.70;;;;;;5052724;28;20048;-69
2023/11/21 01:20:12;;;;;;;10.43;4.43;;;14.20;96.70;;;;;;5069535;28;20041;-69
2023/11/21 01:22:42;;;;;;;7.38;4.15;;;14.20;96.70;;;;;;5077109;28;20086;-69
2023/11/21 01:25:11;;;;;;;8.20;5.07;;;14.20;96.70;;;;;;5070587;28;20044;-69
2023/11/21 01:27:40;;;;;;;9.00;6.20;;;14.10;96.70;;;;;;5078426;28;20036;-70
2023/11/21 01:30:10;;;;;;;9.10;5.28;;;14.10;96.70;;;;;;5073702;28;20047;-70
2023/11/21 01:32:39;;;;;;;8.20;5.38;;;14.10;96.70;;;;;;5060275;28;20105;-69
2023/11/21 01:35:10;;;;;;;8.35;5.15;;;14.20;96.70;;;;;;5076118;28;20059;-70
2023/11/21 01:37:38;;;;;;;10.68;5.70;;;14.20;96.70;;;;;;5079348;28;20120;-69
2023/11/21 01:40:11;;;;;;;9.25;5.22;;;14.20;96.70;;;;;;5075773;28;20033;-70
2023/11/21 01:42:40;;;;;;;9.10;5.53;;;14.20;96.70;;;;;;5071932;28;20404;-68
2023/11/21 01:45:09;;;;;;;7.35;4.90;;;14.20;96.70;;;;;;5069853;28;20043;-69
2023/11/21 01:47:39;;;;;;;7.43;5.15;;;14.10;96.70;;;;;;5059276;28;20044;-67
2023/11/21 01:50:14;;;;;;;10.00;5.47;;;14.00;96.70;;;;;;5065409;28;20038;-69
2023/11/21 01:52:43;;;;;;;9.88;5.10;;;13.90;96.70;;;;;;5068478;28;20048;-69
2023/11/21 01:55:14;;;;;;;8.95;5.22;;;13.90;96.70;;;;;;5071897;28;20090;-67
2023/11/21 01:57:55;;;;;;;10.25;5.30;;;14.00;96.70;;;;;;5067524;28;20049;-69
2023/11/21 02:00:25;;;;;;;9.43;5.22;;;14.00;96.70;;;;;;5048222;28;20549;-67
2023/11/21 02:02:56;;;;;;;7.55;5.13;;;14.00;96.70;;;;;;5052250;28;20140;-68
2023/11/21 02:05:26;;;;;;;8.02;5.70;;;14.00;96.70;;;;;;5068758;28;20521;-68
2023/11/21 02:07:56;;;;;;;8.68;5.90;;;14.00;96.70;;;;;;5070234;28;20078;-68
2023/11/21 02:10:24;;;;;;;9.38;5.25;;;14.00;96.70;;;;;;5074870;28;20040;-69
2023/11/21 02:12:52;;;;;;;8.70;5.35;;;14.00;96.70;;;;;;5064457;28;20463;-69
2023/11/21 02:15:23;;;;;;;9.85;5.38;;;14.00;96.70;;;;;;5070736;28;20044;-68
2023/11/21 02:17:51;;;;;;;8.63;5.13;;;14.00;96.70;;;;;;5054544;28;20056;-69
2023/11/21 02:20:22;;;;;;;8.30;5.32;;;14.00;96.70;;;;;;5048681;28;20045;-69
2023/11/21 02:22:57;;;;;;;10.68;4.85;;;14.00;96.70;;;;;;5049860;28;20680;-69
2023/11/21 02:25:28;;;;;;;8.30;4.93;;;13.90;96.70;;;;;;5044193;28;20052;-68
2023/11/21 02:27:57;;;;;;;8.68;5.63;;;13.90;96.70;;;;;;5049841;28;20047;-68
2023/11/21 02:30:25;;;;;;;8.60;5.15;;;13.90;96.70;;;;;;5070429;28;20407;-69
2023/11/21 02:32:54;;;;;;;9.13;5.88;;;13.90;96.70;;;;;;5067677;28;20049;-68
2023/11/21 02:35:22;;;;;;;11.48;6.10;;;13.90;96.70;;;;;;5070800;28;20036;-69
2023/11/21 02:37:52;;;;;;;8.38;5.22;;;13.90;96.70;;;;;;5050768;28;20049;-69
2023/11/21 02:40:20;;;;;;;12.02;5.03;;;13.90;96.70;;;;;;5066921;28;20050;-69
2023/11/21 02:42:53;;;;;;;8.55;4.78;;;13.80;96.70;;;;;;5068384;28;20503;-69
2023/11/21 02:45:21;;;;;;;9.20;4.85;;;13.90;96.70;;;;;;5049197;28;20049;-69
2023/11/21 02:47:53;;;;;;;7.53;4.95;;;13.80;96.70;;;;;;5073463;28;20064;-68
2023/11/21 02:50:22;;;;;;;8.55;5.22;;;13.90;96.70;;;;;;5080763;28;20040;-68
2023/11/21 02:52:54;;;;;;;9.23;5.40;;;13.90;96.70;;;;;;5069280;28;20819;-68
2023/11/21 02:55:24;;;;;;;9.35;5.13;;;13.90;96.70;;;;;;5060373;28;20102;-68
2023/11/21 02:57:56;;;;;;;6.10;4.63;;;13.80;96.70;;;;;;5071054;28;20550;-69
2023/11/21 03:00:25;;;;;;;9.48;4.80;;;13.80;96.70;;;;;;5071777;28;20047;-67
2023/11/21 03:02:56;;;;;;;7.97;4.57;;;13.80;96.70;;;;;;5057821;28;20488;-69
2023/11/21 03:05:26;;;;;;;7.45;4.40;;;13.80;96.70;;;;;;5039639;28;20048;-68
2023/11/21 03:07:56;;;;;;;6.93;4.32;;;13.90;96.70;;;;;;5055722;28;20048;-68
2023/11/21 03:10:27;;;;;;;7.05;4.03;;;13.90;96.70;;;;;;5056663;28;20037;-68
2023/11/21 03:12:57;;;;;;;5.68;3.72;;;13.90;96.70;;;;;;5046278;28;20045;-69
2023/11/21 03:15:25;;;;;;;6.22;4.03;;;13.90;96.70;;;;;;5074774;28;20063;-69
2023/11/21 03:17:53;;;;;;;9.02;4.30;;;13.90;96.70;;;;;;5066001;28;20036;-68
2023/11/21 03:20:22;;;;;;;7.95;4.30;;;13.90;96.70;;;;;;5070560;28;20036;-68
2023/11/21 03:22:50;;;;;;;6.45;4.15;;;13.90;96.70;;;;;;5056504;28;20033;-69
2023/11/21 03:25:20;;;;;;;5.88;3.40;;;13.90;96.70;;;;;;5067865;28;20087;-68
2023/11/21 03:27:49;;;;;;;6.38;4.10;;;13.80;96.70;;;;;;5060871;28;20580;-68
2023/11/21 03:30:17;;;;;;;11.88;3.95;;;13.90;96.70;;;;;;5049092;28;20427;-69
2023/11/21 03:32:46;;;;;;;8.88;4.57;;;13.90;96.70;;;;;;5056205;28;20056;-69
2023/11/21 03:35:15;;;;;;;6.78;3.72;;;13.80;96.70;;;;;;5064178;28;20048;-68
2023/11/21 03:37:43;;;;;;;7.32;3.33;;;13.80;96.70;;;;;;5060507;28;20626;-69
2023/11/21 03:40:12;;;;;;;7.03;3.63;;;13.80;96.70;;;;;;5061484;28;20098;-68
2023/11/21 03:42:42;;;;;;;6.05;3.20;;;13.70;96.70;;;;;;5059562;28;20050;-69
2023/11/21 03:45:12;;;;;;;9.27;3.60;;;13.80;96.70;;;;;;5066061;28;20679;-69
2023/11/21 03:47:41;;;;;;;7.70;3.75;;;13.80;96.70;;;;;;5066074;28;20106;-69
2023/11/21 03:50:10;;;;;;;6.57;3.90;;;13.80;96.70;;;;;;5066810;28;20102;-68
2023/11/21 03:52:39;;;;;;;7.03;3.33;;;13.80;96.70;;;;;;5062711;28;20094;-69
2023/11/21 03:55:07;;;;;;;6.43;3.30;;;13.80;96.70;;;;;;5080643;28;20111;-69
2023/11/21 03:57:37;;;;;;;5.15;3.58;;;13.80;96.70;;;;;;5072042;28;20123;-69
2023/11/21 04:00:08;;;;;;;6.03;3.92;;;13.70;96.70;;;;;;5074331;28;20047;-68
2023/11/21 04:02:40;;;;;;;7.88;3.90;;;13.70;96.70;;;;;;5066847;28;20059;-69
2023/11/21 04:05:09;;;;;;;6.50;3.78;;;13.70;96.70;;;;;;5071051;28;20047;-69
2023/11/21 04:07:38;;;;;;;8.82;4.05;;;13.70;96.70;;;;;;5071852;28;20040;-69
2023/11/21 04:10:08;;;;;;;6.22;3.60;;;13.60;96.70;;;;;;5068137;28;20139;-69
2023/11/21 04:12:37;;;;;;;9.15;3.75;;;13.60;96.70;;;;;;5074230;28;20137;-69
2023/11/21 04:15:08;;;;;;;8.25;3.78;;;13.60;96.70;;;;;;5068928;28;20553;-69
2023/11/21 04:17:37;;;;;;;6.63;3.67;;;13.60;96.70;;;;;;5070827;28;20072;-69
2023/11/21 04:20:09;;;;;;;6.38;3.95;;;13.60;96.70;;;;;;5081731;28;20082;-69
2023/11/21 04:22:40;;;;;;;8.95;4.50;;;13.60;96.70;;;;;;5074343;28;20142;-68
2023/11/21 04:25:10;;;;;;;8.20;4.47;;;13.50;96.70;;;;;;5072982;28;20043;-69
2023/11/21 04:27:39;;;;;;;9.10;4.80;;;13.60;96.70;;;;;;5071380;28;20436;-69
2023/11/21 04:30:10;;;;;;;6.25;4.40;;;13.60;96.70;;;;;;5074512;28;20048;-69
2023/11/21 04:32:44;;;;;;;8.85;4.47;;;13.60;96.70;;;;;;5075792;28;20075;-69
2023/11/21 04:35:13;;;;;;;7.57;4.28;;;13.60;96.70;;;;;;5076055;28;20037;-69
2023/11/21 04:37:41;;;;;;;11.88;5.20;;;13.60;96.70;;;;;;5071963;28;20040;-68
2023/11/21 04:40:10;;;;;;;8.55;4.78;;;13.60;96.70;;;;;;5070582;28;20033;-69
2023/11/21 04:42:38;;;;;;;9.50;4.82;;;13.60;96.70;;;;;;5083263;28;20053;-69
2023/11/21 04:45:11;;;;;;;9.98;5.00;;;13.70;96.70;;;;;;5069908;28;20491;-69
2023/11/21 04:47:41;;;;;;;9.30;4.68;;;13.70;96.70;;;;;;5083768;28;20412;-69
2023/11/21 04:50:10;;;;;;;8.73;4.93;;;13.70;96.70;;;;;;5069888;28;20048;-69
2023/11/21 04:52:38;;;;;;;6.90;4.57;;;13.70;96.70;;;;;;5084615;28;20048;-69
2023/11/21 04:55:09;;;;;;;6.82;5.00;;;13.70;96.70;;;;;;5073061;28;20657;-68
2023/11/21 04:57:41;;;;;;;7.47;4.80;;;13.70;96.70;;;;;;5078967;28;20039;-69
2023/11/21 05:00:12;;;;;;;10.60;4.72;;;13.70;96.70;;;;;;5074398;28;20052;-69
2023/11/21 05:02:41;;;;;;;7.57;5.00;;;13.70;96.70;;;;;;5085603;28;20549;-69
2023/11/21 05:05:10;;;;;;;6.47;4.75;;;13.70;96.70;;;;;;5066555;28;20091;-69
2023/11/21 05:07:39;;;;;;;9.45;4.75;;;13.70;96.70;;;;;;5068263;28;20051;-69
2023/11/21 05:10:11;;;;;;;7.40;5.40;;;13.70;96.70;;;;;;5063206;28;20041;-69
2023/11/21 05:12:41;;;;;;;9.55;4.88;;;13.70;96.70;;;;;;5076552;28;20048;-69
2023/11/21 05:15:14;;;;;;;11.48;5.55;;;13.70;96.70;;;;;;5069604;28;20052;-68
2023/11/21 05:17:46;;;;;;;7.10;4.50;;;13.70;96.70;;;;;;5059180;28;20155;-70
2023/11/21 05:20:23;;;;;;;6.72;4.30;;;13.60;96.70;;;;;;5059844;28;20044;-69
2023/11/21 05:22:51;;;;;;;;;;;13.60;96.70;;;;;;5057975;28;20573;-69
2023/11/21 05:25:19;;;;;;;7.57;3.53;;;13.60;96.70;;;;;;5071631;28;19927;-68
2023/11/21 05:27:48;;;;;;;5.35;3.35;;;13.60;96.70;;;;;;5062240;28;20048;-69
2023/11/21 05:30:18;;;;;;;5.53;3.38;;;13.70;96.70;;;;;;5063662;28;20562;-69
2023/11/21 05:32:46;;;;;;;7.63;3.40;;;13.70;96.70;;;;;;5075523;28;20145;-68
2023/11/21 05:35:17;;;;;;;7.57;3.70;;;13.70;96.70;;;;;;5081000;28;20089;-69
2023/11/21 05:37:46;;;;;;;5.68;2.92;;;13.70;96.70;;;;;;5060019;28;20400;-69
2023/11/21 05:40:15;;;;;;;5.95;3.17;;;13.70;96.70;;;;;;5073170;28;20123;-69
2023/11/21 05:42:43;;;;;;;6.63;2.58;;;13.70;96.70;;;;;;5061524;28;20103;-69
2023/11/21 05:45:12;;;;;;;6.45;2.83;;;13.70;96.70;;;;;;5060025;28;20040;-69
2023/11/21 05:47:43;;;;;;;10.82;3.28;;;13.70;96.70;;;;;;5074157;28;20149;-68
2023/11/21 05:50:14;;;;;;;4.18;2.55;;;13.70;96.70;;;;;;5082603;28;20496;-69
2023/11/21 05:52:44;;;;;;;6.45;3.25;;;13.70;96.70;;;;;;5075171;28;20050;-69
2023/11/21 05:55:12;;;;;;;4.22;2.38;;;13.70;96.70;;;;;;5079254;28;20421;-69
2023/11/21 05:57:43;;;;;;;4.22;2.70;;;13.80;96.70;;;;;;5069158;28;20028;-69
2023/11/21 06:00:25;;;;;;;4.57;2.85;;;13.80;96.70;;;;;;5071353;28;20044;-69
2023/11/21 06:02:57;;;;;;;8.25;3.70;;;13.80;96.70;;;;;;5082082;28;20502;-69
2023/11/21 06:05:26;;;;;;;6.85;3.80;;;13.80;96.70;;;;;;5042098;28;20798;-69
2023/11/21 06:07:58;;;;;;;5.57;3.20;;;13.70;96.70;;;;;;5079398;28;20039;-69
2023/11/21 06:10:28;;;;;;;6.30;3.65;;;13.70;96.70;;;;;;5050371;28;20064;-69
2023/11/21 06:12:57;;;;;;;8.82;3.75;;;13.70;96.70;;;;;;5068793;28;20484;-67
2023/11/21 06:15:30;;;;;;;7.53;4.32;;;13.60;96.70;;;;;;5069643;28;20586;-68
2023/11/21 06:18:00;;;;;;;6.80;4.47;;;13.60;96.70;;;;;;5079144;28;20457;-69
2023/11/21 06:20:29;;;;;;;8.82;4.88;;;13.50;96.70;;;;;;5077680;28;20044;-69
2023/11/21 06:22:57;;;;;;;7.93;4.50;;;13.50;96.70;;;;;;5075486;28;20140;-69
2023/11/21 06:25:25;;;;;;;6.75;4.40;;;13.50;96.70;;;;;;5071204;28;20055;-69
2023/11/21 06:27:54;;;;;;;8.95;4.30;;;13.60;96.70;;;;;;5069252;28;20049;-68
2023/11/21 06:30:23;;;;;;;8.15;4.70;;;13.60;96.70;;;;;;5075014;28;21058;-69
2023/11/21 06:32:52;;;;;;;10.98;4.50;;;13.60;96.70;;;;;;5075939;28;20050;-69
2023/11/21 06:35:23;;;;;;;7.95;4.63;;;13.70;96.70;;;;;;5068384;28;20473;-69
2023/11/21 06:37:51;;;;;;;8.35;5.18;;;13.70;96.70;;;;;;5075499;28;20047;-69
2023/11/21 06:40:20;;;;;;;9.02;4.50;;;13.70;96.70;;;;;;5076046;28;20072;-68
2023/11/21 06:42:49;;;;;;;8.75;4.45;;;13.70;96.70;;;;;;5073529;28;20086;-69
2023/11/21 06:45:19;;;;;;;6.75;4.45;;;13.80;96.70;;;;;;5067409;28;20040;-69
2023/11/21 06:47:48;;;;;;;10.48;5.28;;;13.80;96.70;;;;;;5068362;28;20139;-69
2023/11/21 06:50:17;;;;;;;9.63;5.40;;;13.80;96.70;;;;;;5076633;28;20048;-69
2023/11/21 06:52:47;;;;;;;10.15;5.13;;;13.80;96.70;;;;;;5067338;28;20053;-69
2023/11/21 06:55:16;;;;;;;10.25;5.00;;;13.90;96.70;;;;;;5075815;28;20044;-69
2023/11/21 06:57:44;;;;;;;7.50;4.90;;;13.90;96.70;;;;;;5071133;28;20041;-69
2023/11/21 07:00:15;;;;;;;8.13;4.65;;;13.90;96.70;;;;;;5080169;28;20116;-70
2023/11/21 07:02:43;;;;;;;7.50;4.75;;;13.90;96.70;;;;;;5079199;28;20441;-69
2023/11/21 07:05:14;;;;;;;8.23;5.05;;;13.90;96.70;;;;;;5066986;28;20047;-69
2023/11/21 07:07:43;;;;;;;9.90;5.38;;;13.90;96.70;;;;;;5060417;28;20036;-69
2023/11/21 07:10:13;;;;;;;9.27;5.50;;;14.00;96.70;;;;;;5066951;28;20114;-69
2023/11/21 07:12:42;;;;;;;10.82;6.03;;;14.00;96.70;;;;;;5070669;28;20460;-69
2023/11/21 07:15:10;;;;;;;11.43;5.95;;;14.00;96.70;;;;;;5066868;28;20444;-70
2023/11/21 07:17:40;;;;;;;12.15;5.82;;;14.00;96.70;;;;;;5066423;28;20048;-69
2023/11/21 07:20:10;;;;;;;8.38;5.32;;;14.00;96.70;;;;;;5068612;28;20032;-74
2023/11/21 07:22:39;;;;;;;8.07;4.68;;;14.00;96.70;;;;;;5072790;28;20036;-73
2023/11/21 07:25:12;;;;;;;8.00;4.95;;;14.00;96.70;;;;;;5076433;28;20036;-73
2023/11/21 07:27:41;;;;;;;10.18;4.93;;;14.00;96.70;;;;;;5085869;28;20046;-73
2023/11/21 07:30:13;;;;;;;8.55;5.55;;;14.00;96.70;;;;;;5074851;28;20044;-73
2023/11/21 07:32:41;;;;;;;8.52;5.75;;;14.00;96.70;;;;;;5074604;28;20408;-73
2023/11/21 07:35:09;;;;;;;8.48;4.82;;;14.00;96.70;;;;;;5068593;28;20122;-73
2023/11/21 07:37:38;;;;;;;10.90;5.20;;;14.00;96.70;;;;;;5074815;28;20037;-74
2023/11/21 07:40:08;;;;;;;6.03;4.55;;;14.10;96.70;;;;;;5075458;28;20044;-74
2023/11/21 07:42:37;;;;;;;8.95;4.90;;;14.10;96.70;;;;;;5077888;28;20437;-74
2023/11/21 07:45:08;;;;;;;6.20;4.68;;;14.10;96.70;;;;;;5078730;28;20041;-73
2023/11/21 07:47:36;;;;;;;9.75;4.93;;;14.10;96.70;;;;;;5081052;28;20556;-74
2023/11/21 07:50:07;;;;;;;10.05;4.93;;;14.10;96.70;;;;;;5084264;28;20037;-73
2023/11/21 07:52:37;;;;;;;8.15;5.07;;;14.20;96.70;;;;;;5084285;28;20093;-73
2023/11/21 07:55:07;;;;;;;12.43;6.88;;;14.20;96.70;;;;;;5076091;28;20123;-72
2023/11/21 07:57:37;;;;;;;12.75;7.32;;;14.30;96.70;;;;;;5086143;28;20059;-72
2023/11/21 08:00:09;;;;;;;11.93;7.53;;;14.30;96.70;;;;;;5081717;28;20051;-71
2023/11/21 08:02:45;;;;;;;8.80;5.90;;;14.30;96.70;;;;;;5072135;28;20044;-71
2023/11/21 08:05:15;;;;;;;9.63;5.68;;;14.30;96.70;;;;;;5069143;28;20040;-75
2023/11/21 08:07:55;;;;;;;10.70;5.28;;;14.40;96.70;;;;;;5060094;28;20096;-76
2023/11/21 08:10:30;;;;;;;12.88;4.75;;;14.40;96.70;;;;;;5062694;28;20731;-76
2023/11/21 08:12:58;;;;;;;8.18;5.35;;;14.40;96.70;;;;;;5073254;28;20044;-77
2023/11/21 08:15:29;;;;;;;8.60;5.05;;;14.40;96.70;;;;;;5080948;28;20043;-76
2023/11/21 08:17:58;;;;;;;12.05;5.45;;;14.40;96.70;;;;;;5074485;28;20127;-78
2023/11/21 08:20:28;;;;;;;9.10;5.70;;;14.40;96.70;;;;;;5080900;28;20060;-74
2023/11/21 08:22:58;;;;;;;6.45;4.43;;;14.40;96.70;;;;;;5072557;28;20045;-76
2023/11/21 08:25:27;;;;;;;9.50;4.82;;;14.40;96.70;;;;;;5072509;28;20438;-73
2023/11/21 08:28:01;;;;;;;6.20;4.25;;;14.40;96.70;;;;;;5083266;28;20036;-81
2023/11/21 08:30:31;;;;;;;10.48;4.53;;;14.40;96.70;;;;;;5053540;28;20049;-71
2023/11/21 08:33:00;;;;;;;9.10;5.13;;;14.50;96.70;;;;;;5077261;28;20162;-71
2023/11/21 08:35:28;;;;;;;6.93;4.72;;;14.50;96.70;;;;;;5074369;28;20044;-71
2023/11/21 08:37:56;;;;;;;7.65;4.53;;;14.50;96.70;;;;;;5088107;28;20449;-72
2023/11/21 08:40:25;;;;;;;8.52;4.40;;;14.50;96.70;;;;;;5074519;28;20093;-70
2023/11/21 08:42:54;;;;;;;7.90;4.75;;;14.60;96.70;;;;;;5071196;28;20052;-72
2023/11/21 08:45:23;;;;;;;7.63;4.43;;;14.70;96.70;;;;;;5071982;28;20052;-72
2023/11/21 08:47:52;;;;;;;8.98;4.68;;;14.80;96.70;;;;;;5079616;28;20060;-72
2023/11/21 08:50:20;;;;;;;9.50;5.07;;;14.90;96.70;;;;;;5087378;28;20047;-71
2023/11/21 08:52:49;;;;;;;9.15;5.63;;;14.90;96.70;;;;;;5057689;28;20040;-71
2023/11/21 08:55:19;;;;;;;10.23;4.90;;;15.00;96.70;;;;;;5085268;28;20750;-71
2023/11/21 08:57:48;;;;;;;10.02;5.88;;;15.10;96.70;;;;;;5057240;28;20071;-74
2023/11/21 09:00:17;;;;;;;11.43;5.50;;;15.20;96.70;;;;;;5074830;28;20059;-72
2023/11/21 09:02:45;;;;;;;11.52;5.50;;;15.20;96.70;;;;;;5081445;28;20619;-73
2023/11/21 09:05:16;;;;;;;8.93;5.25;;;15.20;96.70;;;;;;5070185;28;20556;-73
2023/11/21 09:07:46;;;;;;;8.55;5.13;;;15.20;96.70;;;;;;5068347;28;20044;-72
2023/11/21 09:10:14;;;;;;;8.35;5.45;;;15.30;96.70;;;;;;5070382;28;20044;-72
2023/11/21 09:12:43;;;;;;;10.57;5.65;;;15.30;96.70;;;;;;5065013;28;20071;-71
2023/11/21 09:15:11;;;;;;;10.82;5.43;;;15.30;96.70;;;;;;5080244;28;20586;-71
2023/11/21 09:17:40;;;;;;;11.18;5.15;;;15.30;96.70;;;;;;5073562;28;20072;-71
2023/11/21 09:20:10;;;;;;;8.32;5.50;;;15.40;96.70;;;;;;5057783;28;20037;-70
2023/11/21 09:22:40;;;;;;;7.15;5.20;;;15.40;96.70;;;;;;5062642;28;20099;-70
2023/11/21 09:25:09;;;;;;;8.48;5.85;;;15.50;96.70;;;;;;5069765;28;20070;-71
2023/11/21 09:27:37;;;;;;;11.10;6.25;;;15.50;96.70;;;;;;5074726;28;20049;-70
2023/11/21 09:30:09;;;;;;;13.18;6.47;;;15.50;96.70;;;;;;5062562;28;20040;-71
2023/11/21 09:32:40;;;;;;;11.73;7.28;;;15.50;96.70;;;;;;5074675;28;20621;-71
2023/11/21 09:35:09;;;;;;;11.05;6.82;;;15.50;96.70;;;;;;5074127;28;20140;-72
2023/11/21 09:37:39;;;;;;;10.68;6.63;;;15.60;96.70;;;;;;5050800;28;20080;-70
2023/11/21 09:40:13;;;;;;;10.75;6.72;;;15.50;96.70;;;;;;5075983;28;20495;-69
2023/11/21 09:42:52;;;;;;;13.02;5.55;;;15.50;96.70;;;;;;5067143;28;20048;-68
2023/11/21 09:45:26;;;;;;;8.48;5.50;;;15.40;96.70;;;;;;5074570;28;20908;-66
2023/11/21 09:47:55;;;;;;;8.15;4.78;;;15.40;96.70;;;;;;5075148;28;20380;-68
2023/11/21 09:50:26;;;;;;;10.93;5.63;;;15.30;96.70;;;;;;5054893;28;20052;-67
2023/11/21 09:53:02;;;;;;;41.47;19.90;;;15.40;96.70;;;;;;5070899;28;20040;-66
2023/11/21 09:55:36;;;;;;;32.13;17.15;;;15.40;96.70;;;;;;5062166;28;20048;-67
2023/11/21 09:58:07;;;;;;;26.00;14.20;;;15.50;96.70;;;;;;5077102;28;20036;-70
2023/11/21 10:00:36;;;;;;;33.03;15.07;;;15.50;96.70;;;;;;5077475;28;20044;-71
2023/11/21 10:03:04;;;;;;;14.27;7.72;;;15.60;96.70;;;;;;5078878;28;20040;-74
2023/11/21 10:05:34;;;;;;;10.65;5.93;;;15.60;96.70;;;;;;5053506;28;20049;-74
2023/11/21 10:08:09;;;;;;;52.10;35.80;;;15.60;96.70;;;;;;5075881;28;20044;-77
2023/11/21 10:10:44;;;;;;;16.80;10.23;;;15.70;96.70;;;;;;5065952;28;20462;-73
2023/11/21 10:13:17;;;;;;;14.70;9.60;;;15.70;96.70;;;;;;5060154;28;20049;-74
2023/11/21 10:15:51;;;;;;;13.77;9.00;;;15.80;96.70;;;;;;5069977;28;20117;-74
2023/11/21 10:18:23;;;;;;;31.25;20.52;;;15.80;96.70;;;;;;5074660;28;20036;-75
2023/11/21 10:20:56;;;;;;;63.30;42.67;;;15.90;96.70;;;;;;5059916;28;20037;-74
2023/11/21 10:23:27;;;;;;;75.07;59.15;;;16.00;96.70;;;;;;5067301;28;20056;-74
2023/11/21 10:25:55;;;;;;;40.17;30.75;;;16.00;96.70;;;;;;5083762;28;20078;-75
2023/11/21 10:28:37;;;;;;;16.52;11.00;;;16.10;96.70;;;;;;5067846;28;20091;-73
2023/11/21 10:31:07;;;;;;;29.77;20.30;;;16.00;96.70;;;;;;5057023;28;20050;-74
2023/11/21 10:33:36;;;;;;;46.63;33.65;;;16.00;96.70;;;;;;5074580;28;20072;-72
2023/11/21 10:36:04;;;;;;;25.63;17.73;;;16.00;96.70;;;;;;5067263;28;20040;-70
2023/11/21 10:38:43;;;;;;;16.83;7.43;;;16.00;96.70;;;;;;5052681;28;20044;-69
2023/11/21 10:41:18;;;;;;;12.55;8.00;;;16.00;96.70;;;;;;5047979;28;20048;-71
2023/11/21 10:43:47;;;;;;;14.13;7.80;;;15.90;96.70;;;;;;5063839;28;20511;-69
2023/11/21 10:46:15;;;;;;;12.27;8.00;;;15.90;96.70;;;;;;5050392;28;20041;-69
2023/11/21 10:48:44;;;;;;;13.45;6.95;;;16.00;96.70;;;;;;5050692;28;20111;-69
2023/11/21 10:51:13;;;;;;;13.13;7.05;;;16.00;96.70;;;;;;5061295;28;20120;-70
2023/11/21 10:53:45;;;;;;;12.38;6.40;;;16.00;96.70;;;;;;5066152;28;20481;-69
2023/11/21 10:56:19;;;;;;;10.65;5.85;;;16.00;96.70;;;;;;5074784;28;20036;-70
2023/11/21 10:58:51;;;;;;;9.98;5.28;;;16.10;96.70;;;;;;5049973;28;20069;-70
2023/11/21 11:01:23;;;;;;;10.95;5.90;;;16.10;96.70;;;;;;5078294;28;20049;-70
2023/11/21 11:03:54;;;;;;;10.70;5.47;;;16.10;96.70;;;;;;5070004;28;20044;-68
2023/11/21 11:06:27;;;;;;;12.10;4.88;;;16.10;96.70;;;;;;5082506;28;20094;-69
2023/11/21 11:08:57;;;;;;;12.05;4.82;;;16.10;96.70;;;;;;5058738;28;20131;-70
2023/11/21 11:11:25;;;;;;;8.20;4.43;;;16.10;96.70;;;;;;5051348;28;20041;-70
2023/11/21 11:13:55;;;;;;;7.63;4.18;;;16.20;96.70;;;;;;5068291;28;20044;-70
2023/11/21 11:16:24;;;;;;;9.27;4.25;;;16.20;96.70;;;;;;5057019;28;20049;-70
2023/11/21 11:18:52;;;;;;;9.05;4.30;;;16.20;96.70;;;;;;5063461;28;20052;-70
2023/11/21 11:21:32;;;;;;;9.23;4.55;;;16.20;96.70;;;;;;5049571;28;20095;-70
2023/11/21 11:24:33;;;;;;;8.57;4.70;;;16.20;96.70;;;;;;5059428;28;20056;-70
2023/11/21 11:27:11;;;;;;;10.13;5.00;;;16.20;96.70;;;;;;5071290;28;20503;-70
2023/11/21 11:29:49;;;;;;;7.53;3.63;;;16.30;96.70;;;;;;5069132;28;20053;-71
2023/11/21 11:32:25;;;;;;;8.00;3.65;;;16.40;96.70;;;;;;5052891;28;20511;-70
2023/11/21 11:35:01;;;;;;;11.05;3.83;;;16.50;96.70;;;;;;5062731;28;20069;-71
2023/11/21 11:37:30;;;;;;;9.30;3.55;;;16.60;96.70;;;;;;5068509;28;20044;-70
2023/11/21 11:40:00;;;;;;;6.22;3.47;;;16.80;96.70;;;;;;5066333;28;20032;-71
2023/11/21 11:42:30;;;;;;;9.80;4.30;;;17.10;96.70;;;;;;5077240;28;20049;-71
2023/11/21 11:44:58;;;;;;;7.15;4.00;;;17.20;96.70;;;;;;5059546;28;20037;-71
2023/11/21 11:47:32;;;;;;;11.07;4.10;;;17.30;96.70;;;;;;5079553;28;20059;-69
2023/11/21 11:50:07;;;;;;;9.85;3.70;;;17.30;96.70;;;;;;5060582;28;20048;-72
2023/11/21 11:52:39;;;;;;;6.22;2.70;;;17.30;96.70;;;;;;5071122;28;20106;-74
2023/11/21 11:55:13;;;;;;;11.57;3.55;;;17.30;96.70;;;;;;5085537;28;20173;-73
2023/11/21 11:57:43;;;;;;;6.88;3.28;;;17.30;96.70;;;;;;5073001;28;20040;-73
2023/11/21 12:00:21;;;;;;;8.05;3.47;;;17.40;96.70;;;;;;5052794;28;21553;-73
2023/11/21 12:02:51;;;;;;;9.15;2.47;;;17.50;96.70;;;;;;5068028;28;20544;-74
2023/11/21 12:05:21;;;;;;;7.53;3.00;;;17.60;96.70;;;;;;5058696;28;20114;-73
2023/11/21 12:07:53;;;;;;;7.55;2.75;;;17.70;96.70;;;;;;5070409;28;20040;-73
2023/11/21 12:10:24;;;;;;;8.85;3.35;;;17.90;96.70;;;;;;5070907;28;20044;-73
2023/11/21 12:12:55;;;;;;;9.02;3.65;;;18.30;96.70;;;;;;5053998;28;20065;-74
2023/11/21 12:15:23;;;;;;;6.72;2.53;;;18.70;96.70;;;;;;5078133;28;20110;-73
2023/11/21 12:17:52;;;;;;;6.80;2.75;;;19.00;96.70;;;;;;5069849;28;20045;-72
2023/11/21 12:20:23;;;;;;;6.38;3.17;;;19.10;96.70;;;;;;5071843;28;20771;-73
2023/11/21 12:22:53;;;;;;;5.70;2.03;;;19.30;96.70;;;;;;5056747;28;20122;-73
2023/11/21 12:25:24;;;;;;;6.55;2.35;;;19.50;96.70;;;;;;5067773;28;20106;-73
2023/11/21 12:27:53;;;;;;;8.10;2.55;;;19.50;96.70;;;;;;5068927;28;20461;-73
2023/11/21 12:30:23;;;;;;;7.88;2.13;;;19.60;96.70;;;;;;5089651;28;20040;-73
2023/11/21 12:32:53;;;;;;;5.85;2.10;;;19.70;96.70;;;;;;5070787;28;20048;-73
2023/11/21 12:35:24;;;;;;;6.68;2.10;;;19.80;96.70;;;;;;5077505;28;20048;-73
2023/11/21 12:37:59;;;;;;;7.75;2.15;;;19.70;96.70;;;;;;5058453;28;20750;-73
2023/11/21 12:40:29;;;;;;;9.25;2.35;;;19.70;96.70;;;;;;5059000;28;20041;-73
2023/11/21 12:43:00;;;;;;;4.55;2.15;;;19.90;96.70;;;;;;5053898;28;20045;-73
2023/11/21 12:45:32;;;;;;;4.60;2.00;;;19.90;96.70;;;;;;5056685;28;20128;-73
2023/11/21 12:48:03;;;;;;;5.68;2.38;;;19.70;96.70;;;;;;5090716;28;20055;-73
2023/11/21 12:50:34;;;;;;;14.90;2.35;;;19.50;96.70;;;;;;5071640;28;20044;-73
2023/11/21 12:53:05;;;;;;;7.20;2.38;;;19.40;96.70;;;;;;5056183;28;20037;-73
2023/11/21 12:55:37;;;;;;;7.93;2.28;;;19.20;96.70;;;;;;5070854;28;20048;-73
2023/11/21 12:58:10;;;;;;;9.30;3.05;;;19.10;96.70;;;;;;5052154;28;20508;-73